Nearby METAR Reports

 

KSJC - San Jose, California, USA
Distance from station: NE 9mi, 14km
Updated: Tue, 12-Nov-2019 10:53am PST
Overcast
Overcast
 Wind from calm
Wind: Calm
Temperature: 68°F , 20°C
Dew Point: 46°F , 8°C
Humidity: 46%
Barometer: 30.08 inHg , 1018.6 hPa
Clouds: Overcast
Visibility: 10 miles , 16 km
Cloud details: Few Clouds 4000 ft
Mostly cloudy 11000 ft
Overcast 17000 ft
2019/11/12 18:53 KSJC 121853Z 00000KT 10SM FEW040 BKN110 OVC170 20/08 A3008 RMK AO2 SLP185 T02000078
KNUQ - Moffett Nas/Mtn, California, USA
Distance from station: N 9mi, 14km
Updated: Tue, 12-Nov-2019 10:56am PST

 
Barometer: 30.09 inHg , 1019 hPa
2019/11/12 18:56 KNUQ 121856Z A3009 RMK AO2 SLP193 PWINO $
 
KPAO - Palo Alto, California, USA
Distance from station: NNW 14mi, 23km
Updated: Tue, 12-Nov-2019 8:47am PST
NOT Current
Few Clouds
Few Clouds
 Wind from calm
Wind: Calm
Temperature: 59°F , 15°C
Dew Point: 52°F , 11°C
Humidity: 77%
Barometer: 30.10 inHg , 1019.3 hPa
Clouds: Few Clouds
Visibility: 10 miles , 16 km
Cloud details: Few Clouds 20000 ft
2019/11/12 16:47 KPAO 121647Z 00000KT 10SM FEW200 15/11 A3010
KRHV - San Jose/Reid, California, USA
Distance from station: ENE 12mi, 19km
Updated: Tue, 12-Nov-2019 11:47am PST
Mostly cloudy
Mostly cloudy
 Wind from WNW
Wind: WNW 3 mph , 6 km/h
Temperature: 72°F , 22°C
Dew Point: 46°F , 8°C
Humidity: 41%
Barometer: 30.07 inHg , 1018.3 hPa
Clouds: Mostly cloudy
Visibility: 10 miles , 16 km
Cloud details: Mostly cloudy 11000 ft
2019/11/12 19:47 KRHV 121947Z 30003KT 10SM BKN110 22/08 A3007
 
KOAK - Oakland, California, USA
Distance from station: NNW 31mi, 50km
Updated: Tue, 12-Nov-2019 10:53am PST
Mostly cloudy
Mostly cloudy
 Wind from W
Wind: W 6 mph , 9 km/h
Temperature: 66°F , 19°C
Dew Point: 50°F , 10°C
Humidity: 56%
Barometer: 30.10 inHg , 1019.3 hPa
Clouds: Mostly cloudy
Visibility: 10 miles , 16 km
Cloud details: Mostly cloudy 20000 ft
Mostly cloudy 25000 ft
2019/11/12 18:53 KOAK 121853Z 27005KT 10SM BKN200 BKN250 19/10 A3010 RMK AO2 SLP190 T01890100
KSQL - San Carlos Airpo, California, USA
Distance from station: NW 21mi, 34km
Updated: Tue, 12-Nov-2019 11:47am PST
Partly cloudy
Partly cloudy
 Wind from calm
Wind: Calm
Temperature: 64°F , 18°C
Dew Point: 54°F , 12°C
Humidity: 68%
Barometer: 30.08 inHg , 1018.6 hPa
Clouds: Partly cloudy
Visibility: 8 miles , 13 km
Cloud details: Partly cloudy 20000 ft
2019/11/12 19:47 KSQL 121947Z 00000KT 8SM SCT200 18/12 A3008
 
KSFO - San Francisco, California, USA
Distance from station: NW 30mi, 49km
Updated: Tue, 12-Nov-2019 10:56am PST
Mostly cloudy
Mostly cloudy
 Wind from calm
Wind: Calm
Temperature: 61°F , 16°C
Dew Point: 52°F , 11°C
Humidity: 72%
Barometer: 30.09 inHg , 1019 hPa
Clouds: Mostly cloudy
Visibility: 10 miles , 16 km
Cloud details: Mostly cloudy 20000 ft
2019/11/12 18:56 KSFO 121856Z 00000KT 10SM BKN200 16/11 A3009 RMK AO2 SLP188 T01610106
KE16 - San Martin, California, USA
Distance from station: ESE 27mi, 43km
Updated: Tue, 12-Nov-2019 11:35am PST
Clear
Clear
 Wind from calm
Wind: Calm
Temperature: 73°F , 23°C
Dew Point: 41°F , 5°C
Humidity: 31%
Barometer: 30.08 inHg , 1018.6 hPa
Clouds: Clear
Visibility: 10 miles , 16 km
2019/11/12 19:35 KE16 121935Z AUTO 00000KT 10SM CLR 23/05 A3008 RMK AO2
 
KWVI - Watsonville, California, USA
Distance from station: SSE 27mi, 44km
Updated: Tue, 12-Nov-2019 10:53am PST
Clear
Clear
 Wind from calm
Wind: Calm
Temperature: 70°F , 21°C
Dew Point: 45°F , 7°C
Humidity: 40%
Barometer: 30.08 inHg , 1018.6 hPa
Clouds: Clear
Visibility: 10 miles , 16 km
2019/11/12 18:53 KWVI 121853Z AUTO 00000KT 10SM CLR 21/07 A3008 RMK AO2 SLP185 T02110067
KHAF - Half Moon Bay, California, USA
Distance from station: WNW 31mi, 50km
Updated: Tue, 12-Nov-2019 11:40am PST
Fog, Overcast
Fog, Overcast
 Wind from W
Wind: W 5 mph , 7 km/h
Temperature: 50°F , 10°C
Wind Chill: 48°F , 9°C
Dew Point: 50°F , 10°C
Humidity: 100%
Barometer: 30.10 inHg , 1019.3 hPa
Summary: Fog
Clouds: Overcast
Visibility: 1/4 mile , 0.4 km
Cloud details: Overcast 300 ft
2019/11/12 19:40 KHAF 121940Z AUTO 26004KT 1/4SM FG OVC003 10/10 A3010 RMK AO2
 
KHWD - Hayward, California, USA
Distance from station: N 28mi, 44km
Updated: Tue, 12-Nov-2019 10:54am PST
Clear
Clear
 Wind from SSW
Wind: SSW 3 mph , 6 km/h
Temperature: 64°F , 18°C
Dew Point: 48°F , 9°C
Humidity: 56%
Barometer: 30.08 inHg , 1018.6 hPa
Clouds: Clear
Visibility: 10 miles , 16 km
2019/11/12 18:54 KHWD 121854Z 21003KT 10SM CLR 18/09 A3008 RMK AO2 SLP197 T01830094
KLVK - Livermore, California, USA
Distance from station: NNE 31mi, 51km
Updated: Tue, 12-Nov-2019 10:53am PST
Clear
Clear
 Wind from SW
Wind: SW 6 mph , 9 km/h
Temperature: 68°F , 20°C
Dew Point: 39°F , 4°C
Humidity: 35%
Barometer: 30.08 inHg , 1018.6 hPa
Clouds: Clear
Visibility: 10 miles , 16 km
2019/11/12 18:53 KLVK 121853Z 22005KT 10SM CLR 20/04 A3008 RMK AO2 SLP184 T02000044